Time;durP1;ratioP1;P1;durP2;ratioP2;P2;SDS_P1;SDS_P2;PMS_P1;PMS_P2;Temp;Humidity;BMP_temperature;BMP_pressure;BME280_temperature;BME280_humidity;BME280_pressure;Samples;Min_cycle;Max_cycle;Signal;HPM_P1;HPM_P2
2023/01/06 00:00:30;;;;;;;7.28;6.15;;;;;;;9.88;59.72;100947.66;1630603;84;21077;-58
2023/01/06 00:02:57;;;;;;;7.28;6.30;;;;;;;9.88;59.66;100948.95;1667591;84;21063;-57
2023/01/06 00:05:23;;;;;;;5.97;5.37;;;;;;;9.88;59.64;100947.66;1667287;84;21133;-57
2023/01/06 00:07:51;;;;;;;6.37;5.60;;;;;;;9.88;59.55;100945.06;1664636;85;21038;-58
2023/01/06 00:10:18;;;;;;;6.87;5.70;;;;;;;9.87;59.50;100943.36;1702726;80;21533;-57
2023/01/06 00:12:48;;;;;;;6.12;5.00;;;;;;;9.87;59.52;100942.06;1752559;80;21022;-57
2023/01/06 00:15:16;;;;;;;5.65;4.37;;;;;;;9.88;59.39;100945.06;1752413;81;21003;-57
2023/01/06 00:17:43;;;;;;;4.80;4.30;;;;;;;9.87;59.38;100951.16;1755991;80;21006;-58
2023/01/06 00:20:11;;;;;;;4.58;4.10;;;;;;;9.87;59.24;100947.27;1755177;80;21079;-57
2023/01/06 00:22:39;;;;;;;4.40;3.83;;;;;;;9.88;59.12;100958.06;1749801;81;21058;-58
2023/01/06 00:27:38;;;;;;;5.17;3.90;;;;;;;9.90;58.83;100959.75;1715328;82;21015;-57
2023/01/06 00:30:08;;;;;;;3.85;3.45;;;;;;;9.93;58.79;100970.55;1706672;83;21400;-57
2023/01/06 00:32:35;;;;;;;4.12;3.55;;;;;;;9.94;58.76;100969.66;1700988;83;21560;-59
2023/01/06 00:35:02;;;;;;;3.62;3.20;;;;;;;9.96;58.62;100976.98;1717383;83;21065;-57
2023/01/06 00:37:29;;;;;;;6.08;3.67;;;;;;;9.98;58.46;100972.63;1711068;83;21111;-57
2023/01/06 00:39:56;;;;;;;4.17;3.20;;;;;;;10.00;58.37;100969.55;1715843;83;21057;-57
2023/01/06 00:42:23;;;;;;;3.92;3.22;;;;;;;10.01;58.30;100968.69;1720260;83;21074;-57
2023/01/06 00:44:50;;;;;;;3.33;2.90;;;;;;;10.03;58.31;100966.92;1704847;83;21054;-57
2023/01/06 00:47:17;;;;;;;3.92;3.08;;;;;;;10.05;58.23;100963.86;1705973;83;21524;-57
2023/01/06 00:49:44;;;;;;;4.53;3.72;;;;;;;10.07;58.22;100967.29;1717624;82;21071;-57
2023/01/06 00:52:11;;;;;;;3.98;3.50;;;;;;;10.08;58.20;100971.59;1706653;83;21591;-57
2023/01/06 00:54:38;;;;;;;3.80;3.40;;;;;;;10.10;58.18;100977.66;1711540;83;21014;-57
2023/01/06 00:57:06;;;;;;;3.90;3.15;;;;;;;10.11;58.11;100987.19;1718882;83;21046;-57
2023/01/06 00:59:33;;;;;;;3.72;3.20;;;;;;;10.12;58.00;100981.95;1702632;83;21021;-58
2023/01/06 01:02:01;;;;;;;4.47;3.42;;;;;;;10.13;57.89;100990.63;1698453;83;21045;-57
2023/01/06 01:04:28;;;;;;;3.08;2.50;;;;;;;10.13;57.88;100993.22;1708987;83;21043;-57
2023/01/06 01:06:54;;;;;;;3.20;2.90;;;;;;;10.14;57.78;101000.98;1701587;83;21132;-58
2023/01/06 01:09:29;;;;;;;4.03;3.10;;;;;;;10.15;57.73;101001.86;1709489;83;21074;-57
2023/01/06 01:12:08;;;;;;;4.05;3.35;;;;;;;10.16;57.66;101007.48;1713081;83;21007;-57
2023/01/06 01:17:23;;;;;;;4.05;2.70;;;;;;;10.16;57.60;100992.72;1658664;85;21571;-57
2023/01/06 01:19:53;;;;;;;4.12;2.55;;;;;;;10.20;57.52;100993.55;1646508;86;21064;-57
2023/01/06 01:22:19;;;;;;;3.50;2.95;;;;;;;10.22;57.47;101000.89;1650114;85;21033;-58
2023/01/06 01:24:46;;;;;;;4.20;3.27;;;;;;;10.24;57.43;101004.32;1657048;84;21039;-58
2023/01/06 01:27:13;;;;;;;3.08;2.77;;;;;;;10.26;57.37;101005.16;1676123;83;21121;-57
2023/01/06 01:29:40;;;;;;;3.22;2.90;;;;;;;10.28;57.25;101012.48;1690227;85;22391;-58
2023/01/06 01:32:07;;;;;;;3.90;2.90;;;;;;;10.30;57.24;101009.42;1675308;85;21066;-58
2023/01/06 01:34:34;;;;;;;4.12;3.50;;;;;;;10.30;57.13;101021.98;1670042;85;21574;-58
2023/01/06 01:37:01;;;;;;;4.22;3.02;;;;;;;10.32;57.12;101023.25;1687921;84;21077;-57
2023/01/06 01:39:29;;;;;;;3.42;3.02;;;;;;;10.33;57.11;101023.22;1677295;84;21105;-58
2023/01/06 01:41:57;;;;;;;3.60;3.20;;;;;;;10.37;57.01;101018.81;1691382;84;21113;-58
2023/01/06 01:45:04;;;;;;;4.17;3.17;;;;;;;10.40;56.89;101026.59;1673540;85;21123;-57
2023/01/06 01:47:48;;;;;;;3.15;2.85;;;;;;;10.43;56.82;101026.08;1679922;84;21043;-57
2023/01/06 01:50:39;;;;;;;3.47;2.85;;;;;;;10.47;56.79;101029.48;1680356;84;21514;-58
2023/01/06 01:53:09;;;;;;;4.58;3.45;;;;;;;10.48;56.64;101028.18;1687123;85;21078;-58
2023/01/06 01:55:36;;;;;;;3.40;3.10;;;;;;;10.47;56.63;101026.87;1677548;85;21112;-58
2023/01/06 01:58:11;;;;;;;4.00;3.55;;;;;;;10.48;56.59;101023.41;1672143;85;21636;-58
2023/01/06 02:00:40;;;;;;;5.15;4.33;;;;;;;10.51;56.54;101029.84;1662804;86;21120;-58
2023/01/06 02:03:07;;;;;;;4.53;4.00;;;;;;;10.52;56.45;101023.77;1668180;86;21137;-58
2023/01/06 02:05:38;;;;;;;4.60;4.03;;;;;;;10.52;56.38;101034.18;1604250;89;21083;-59
2023/01/06 02:08:11;;;;;;;5.28;4.03;;;;;;;10.52;56.40;101036.78;1604781;88;21062;-57
2023/01/06 02:10:38;;;;;;;5.05;3.87;;;;;;;10.52;56.42;101034.18;1600544;89;21087;-57
2023/01/06 02:13:04;;;;;;;5.03;4.17;;;;;;;10.51;56.41;101033.75;1606050;88;21094;-57
2023/01/06 02:15:32;;;;;;;4.53;4.00;;;;;;;10.50;56.42;101042.45;1638501;86;21125;-58
2023/01/06 02:18:26;;;;;;;5.10;4.55;;;;;;;10.50;56.51;101041.16;1607876;88;21565;-57
2023/01/06 02:21:17;;;;;;;4.72;4.33;;;;;;;10.50;56.52;101042.02;1558453;90;21109;-57
2023/01/06 02:23:59;;;;;;;4.97;4.47;;;;;;;10.48;56.57;101037.72;1529382;92;21118;-58
2023/01/06 02:27:05;;;;;;;5.62;4.92;;;;;;;10.48;56.57;101041.63;1531475;92;21171;-58
2023/01/06 02:30:05;;;;;;;6.58;4.65;;;;;;;10.46;56.67;101044.69;1529359;92;21107;-58
2023/01/06 02:32:54;;;;;;;4.95;4.40;;;;;;;10.45;56.62;101045.56;1524715;92;21146;-59
2023/01/06 02:35:51;;;;;;;4.85;4.35;;;;;;;10.42;56.56;101037.83;1526843;92;21072;-58
2023/01/06 02:38:23;;;;;;;6.20;4.85;;;;;;;10.39;56.51;101040.03;1520112;92;21591;-57
2023/01/06 02:40:59;;;;;;;5.92;4.90;;;;;;;10.36;56.51;101042.70;1494372;92;21084;-58
2023/01/06 02:43:38;;;;;;;4.55;4.15;;;;;;;10.35;56.52;101041.39;1532613;91;21210;-58
2023/01/06 02:46:16;;;;;;;5.28;4.55;;;;;;;10.34;56.50;101046.20;1544010;92;21113;-58
2023/01/06 02:49:09;;;;;;;5.72;4.80;;;;;;;10.33;56.52;101041.43;1533771;92;21136;-58
2023/01/06 02:52:03;;;;;;;5.12;4.45;;;;;;;10.33;56.50;101049.67;1529085;92;21588;-58
2023/01/06 02:54:52;;;;;;;5.00;4.50;;;;;;;10.32;56.49;101060.97;1506814;92;21128;-58
2023/01/06 02:57:28;;;;;;;4.97;4.42;;;;;;;10.29;56.43;101063.17;1574000;88;21102;-57
2023/01/06 03:00:25;;;;;;;5.08;4.58;;;;;;;10.28;56.41;101067.11;1603389;87;21077;-58
2023/01/06 03:02:59;;;;;;;5.17;4.67;;;;;;;10.26;56.45;101064.50;1548740;92;21274;-58
2023/01/06 03:05:26;;;;;;;5.47;4.78;;;;;;;10.25;56.51;101071.04;1537219;93;21619;-58
2023/01/06 03:07:53;;;;;;;6.55;5.17;;;;;;;10.23;56.54;101076.70;1531818;93;21124;-57
2023/01/06 03:10:21;;;;;;;6.67;5.45;;;;;;;10.20;56.54;101072.87;1534393;93;21175;-58
2023/01/06 03:13:03;;;;;;;5.37;4.47;;;;;;;10.19;56.63;101073.73;1534624;93;21114;-57
2023/01/06 03:15:30;;;;;;;6.00;4.87;;;;;;;10.16;56.72;101071.20;1513656;94;21103;-59
2023/01/06 03:17:57;;;;;;;5.78;5.00;;;;;;;10.15;56.76;101074.66;1528313;92;21174;-57
2023/01/06 03:20:23;;;;;;;6.40;4.90;;;;;;;10.11;56.84;101075.59;1534867;92;21580;-58
2023/01/06 03:22:50;;;;;;;5.67;5.10;;;;;;;10.09;56.91;101074.72;1532532;91;21121;-58
2023/01/06 03:25:17;;;;;;;6.97;4.97;;;;;;;10.09;56.84;101078.19;1527718;92;21134;-58
2023/01/06 03:27:45;;;;;;;7.67;5.33;;;;;;;10.06;56.99;101076.05;1528692;92;21096;-57
2023/01/06 03:30:13;;;;;;;5.17;4.67;;;;;;;10.05;57.04;101073.91;1530612;92;21136;-58
2023/01/06 03:33:09;;;;;;;6.15;5.47;;;;;;;10.04;57.12;101076.52;1525742;92;21074;-58
2023/01/06 03:36:02;;;;;;;6.22;4.60;;;;;;;10.02;57.25;101074.37;1533348;92;21610;-58
2023/01/06 03:38:47;;;;;;;5.05;4.53;;;;;;;10.03;57.35;101069.61;1528276;91;21111;-58
2023/01/06 03:44:30;;;;;;;7.20;5.12;;;;;;;10.00;57.42;101070.51;1583975;89;21089;-58
2023/01/06 03:47:08;;;;;;;5.40;4.90;;;;;;;10.01;57.49;101066.17;1525672;92;21193;-57
2023/01/06 03:49:41;;;;;;;5.78;4.90;;;;;;;10.00;57.56;101073.11;1485079;96;21100;-58
2023/01/06 03:52:14;;;;;;;5.33;4.83;;;;;;;9.99;57.60;101073.14;1391024;102;21176;-58
2023/01/06 03:54:57;;;;;;;5.12;4.25;;;;;;;10.00;57.72;101075.71;1340872;106;21210;-58
2023/01/06 03:57:39;;;;;;;4.87;4.20;;;;;;;10.00;57.74;101073.54;1333245;106;21272;-58
2023/01/06 04:00:15;;;;;;;4.25;3.85;;;;;;;10.00;57.78;101074.84;1341324;106;21178;-57
2023/01/06 04:02:44;;;;;;;3.98;3.58;;;;;;;10.01;57.78;101076.58;1351186;104;21578;-58
2023/01/06 04:05:18;;;;;;;4.85;3.77;;;;;;;10.05;57.79;101073.91;1346434;103;21607;-58
2023/01/06 04:07:46;;;;;;;3.67;3.27;;;;;;;10.09;57.72;101072.13;1350559;105;21170;-58
2023/01/06 04:10:15;;;;;;;3.80;3.40;;;;;;;10.10;57.75;101079.05;1345111;105;21144;-57
2023/01/06 04:12:42;;;;;;;4.17;3.60;;;;;;;10.10;57.75;101082.52;1325482;107;21137;-57
2023/01/06 04:15:17;;;;;;;4.85;3.50;;;;;;;10.01;58.07;101086.97;1350279;105;21211;-58
2023/01/06 04:17:46;;;;;;;3.30;3.00;;;;;;;9.85;58.55;101089.78;1321022;106;21256;-58
2023/01/06 04:20:18;;;;;;;4.20;3.20;;;;;;;9.83;58.71;101091.53;1326538;107;21132;-58
2023/01/06 04:22:45;;;;;;;;;;;;;;;9.84;58.79;101091.97;1282764;111;21194;-58
2023/01/06 04:25:13;;;;;;;4.03;2.90;;;;;;;9.83;58.81;101101.93;1280861;110;20198;-58
2023/01/06 04:27:42;;;;;;;4.10;3.30;;;;;;;9.82;58.91;101099.36;1281121;111;21164;-58
2023/01/06 04:30:11;;;;;;;4.35;3.52;;;;;;;9.81;58.96;101099.80;1293170;110;21275;-58
2023/01/06 04:32:38;;;;;;;3.35;2.65;;;;;;;9.81;59.05;101106.29;1299431;109;21202;-58
2023/01/06 04:35:07;;;;;;;3.15;2.85;;;;;;;9.81;59.14;101111.48;1280870;110;21231;-57
2023/01/06 04:37:35;;;;;;;2.58;2.37;;;;;;;9.81;59.25;101114.09;1281063;110;21736;-57
2023/01/06 04:40:03;;;;;;;2.98;2.42;;;;;;;9.82;59.35;101111.06;1312999;108;21190;-58
2023/01/06 04:43:02;;;;;;;2.70;2.50;;;;;;;9.83;59.41;101121.42;1311778;108;21176;-58
2023/01/06 04:44:58;;;;;;;3.83;2.70;;;;;;;9.98;59.20;101120.80;1323611;106;21179;-57
2023/01/06 04:47:25;;;;;;;3.60;2.47;;;;;;;10.14;58.79;101124.50;1386683;102;21174;-57
2023/01/06 04:49:51;;;;;;;3.40;2.20;;;;;;;10.17;58.75;101122.30;1439880;98;21279;-58
2023/01/06 04:52:18;;;;;;;2.27;2.00;;;;;;;10.20;58.81;101127.48;1497484;94;21102;-58
2023/01/06 04:54:44;;;;;;;2.47;2.05;;;;;;;10.20;58.91;101132.22;1519654;93;21058;-58
2023/01/06 04:57:11;;;;;;;2.20;1.92;;;;;;;10.23;58.98;101128.72;1519662;93;21119;-58
2023/01/06 04:59:39;;;;;;;1.75;1.55;;;;;;;10.24;59.11;101126.55;1507671;94;21150;-58
2023/01/06 05:02:06;;;;;;;3.27;1.90;;;;;;;10.29;59.21;101132.53;1514642;93;21164;-58
2023/01/06 05:04:32;;;;;;;2.95;2.20;;;;;;;10.32;59.23;101145.50;1514083;93;21722;-58
2023/01/06 05:06:59;;;;;;;1.77;1.67;;;;;;;10.34;59.31;101150.24;1508176;93;21154;-57
2023/01/06 05:09:25;;;;;;;1.77;1.67;;;;;;;10.36;59.32;101149.78;1519264;94;21239;-58
2023/01/06 05:11:52;;;;;;;1.92;1.65;;;;;;;10.39;59.38;101149.72;1509330;94;21101;-58
2023/01/06 05:14:19;;;;;;;2.42;1.85;;;;;;;10.42;59.31;101156.19;1514463;93;21239;-58
2023/01/06 05:16:46;;;;;;;1.95;1.85;;;;;;;10.43;59.35;101165.27;1513820;93;21097;-57
2023/01/06 05:19:12;;;;;;;2.02;1.82;;;;;;;10.44;59.24;101177.84;1563449;85;21637;-58
2023/01/06 05:21:39;;;;;;;1.62;1.50;;;;;;;10.45;59.32;101182.14;1738999;80;21069;-58
2023/01/06 05:24:08;;;;;;;1.67;1.40;;;;;;;10.45;59.29;101191.25;1764321;80;21525;-58
2023/01/06 05:26:35;;;;;;;2.05;1.50;;;;;;;10.46;59.33;101192.98;1767657;80;20982;-57
2023/01/06 05:29:02;;;;;;;1.50;1.40;;;;;;;10.48;59.30;101200.33;1764639;80;21066;-58
2023/01/06 05:31:28;;;;;;;1.82;1.35;;;;;;;10.49;59.25;101199.00;1754593;80;21011;-58
2023/01/06 05:33:56;;;;;;;1.50;1.40;;;;;;;10.51;59.17;101188.55;1767422;80;21500;-58
2023/01/06 05:36:23;;;;;;;1.60;1.37;;;;;;;10.52;59.16;101191.59;1758643;80;21094;-58
2023/01/06 05:38:53;;;;;;;1.60;1.37;;;;;;;10.52;59.11;101203.30;1763430;80;21046;-58
2023/01/06 05:41:20;;;;;;;1.87;1.60;;;;;;;10.54;58.99;101201.54;1762010;80;21533;-58
2023/01/06 05:43:46;;;;;;;1.95;1.50;;;;;;;10.54;58.97;101201.54;1761487;80;21034;-58
2023/01/06 05:46:13;;;;;;;1.87;1.67;;;;;;;10.56;58.96;101210.18;1766941;80;21029;-58
2023/01/06 05:48:41;;;;;;;2.27;1.95;;;;;;;10.57;58.88;101210.15;1753386;80;21522;-58
2023/01/06 05:51:12;;;;;;;2.20;2.00;;;;;;;10.59;58.87;101208.39;1750475;81;21026;-58
2023/01/06 05:53:42;;;;;;;2.52;1.98;;;;;;;10.62;58.84;101212.27;1760427;80;21041;-58
2023/01/06 05:56:11;;;;;;;1.62;1.52;;;;;;;10.65;58.72;101216.56;1765823;80;21508;-58
2023/01/06 05:58:41;;;;;;;2.02;1.80;;;;;;;10.65;58.60;101214.80;1762785;80;21485;-58
2023/01/06 06:01:20;;;;;;;1.67;1.57;;;;;;;10.67;58.59;101223.91;1753261;80;21032;-58
2023/01/06 06:03:47;;;;;;;2.47;2.20;;;;;;;10.70;58.50;101226.88;1740976;80;21054;-58
2023/01/06 06:06:14;;;;;;;2.45;1.95;;;;;;;10.72;58.42;101237.70;1765472;80;21047;-58
2023/01/06 06:08:40;;;;;;;1.87;1.67;;;;;;;10.74;58.27;101238.53;1763791;80;21086;-58
2023/01/06 06:11:10;;;;;;;1.70;1.50;;;;;;;10.76;58.26;101238.07;1765544;80;21038;-58
2023/01/06 06:13:38;;;;;;;1.98;1.47;;;;;;;10.77;58.27;101246.31;1692827;83;21053;-59
2023/01/06 06:16:10;;;;;;;1.50;1.30;;;;;;;10.81;58.23;101254.93;1644441;86;21063;-58
2023/01/06 06:18:41;;;;;;;1.47;1.35;;;;;;;10.84;58.16;101265.31;1584681;89;21094;-58
2023/01/06 06:21:06;;;;;;;2.40;1.60;;;;;;;10.84;58.17;101270.05;1598884;89;21160;-58
2023/01/06 06:23:32;;;;;;;2.75;1.55;;;;;;;10.87;58.10;101275.66;1609765;88;21137;-58
2023/01/06 06:26:00;;;;;;;2.22;1.30;;;;;;;10.89;58.08;101279.97;1600879;88;21123;-58
2023/01/06 06:28:30;;;;;;;1.50;1.05;;;;;;;10.93;57.96;101286.86;1611977;88;21084;-58
2023/01/06 06:31:12;;;;;;;1.30;1.20;;;;;;;10.95;57.94;101288.99;1606204;88;21058;-58
2023/01/06 06:33:38;;;;;;;;;;;;;;;10.97;57.98;101288.53;1609676;88;21073;-58
2023/01/06 06:36:14;;;;;;;1.27;0.98;;;;;;;11.01;57.92;101294.54;1600826;88;20120;-58
2023/01/06 06:38:41;;;;;;;2.45;1.30;;;;;;;11.04;57.87;101299.28;1586829;89;21163;-58
2023/01/06 06:41:08;;;;;;;1.90;1.20;;;;;;;11.08;57.78;101300.95;1606470;88;21058;-58
2023/01/06 06:43:34;;;;;;;1.65;1.12;;;;;;;11.11;57.68;101307.41;1581932;89;21165;-58
2023/01/06 06:46:01;;;;;;;1.77;1.40;;;;;;;11.14;57.60;101312.59;1601227;88;21148;-58
2023/01/06 06:48:29;;;;;;;1.45;1.10;;;;;;;11.16;57.51;101313.42;1581425;89;21088;-58
2023/01/06 06:51:03;;;;;;;1.42;1.30;;;;;;;11.18;57.54;101319.47;1591912;88;21642;-58
2023/01/06 06:53:31;;;;;;;3.08;1.72;;;;;;;11.22;57.53;101322.88;1563461;92;21552;-57
2023/01/06 06:55:58;;;;;;;1.32;1.00;;;;;;;11.24;57.43;101328.92;1546472;91;21683;-57
2023/01/06 06:58:24;;;;;;;1.87;1.07;;;;;;;11.25;57.36;101324.15;1556929;92;21124;-57
2023/01/06 07:00:51;;;;;;;1.35;1.10;;;;;;;11.26;57.45;101328.02;1549027;92;21101;-57
2023/01/06 07:03:21;;;;;;;1.12;0.95;;;;;;;11.27;57.40;101329.73;1538329;92;21071;-57
2023/01/06 07:05:49;;;;;;;1.42;1.05;;;;;;;11.29;57.32;101335.77;1545733;92;21156;-57
2023/01/06 07:08:16;;;;;;;1.12;0.93;;;;;;;11.31;57.31;101331.39;1545105;91;21719;-58
2023/01/06 07:10:43;;;;;;;1.25;1.10;;;;;;;11.33;57.24;101341.36;1575239;90;21043;-57
2023/01/06 07:13:09;;;;;;;1.65;1.20;;;;;;;11.35;57.16;101336.98;1585767;89;21590;-57
2023/01/06 07:15:36;;;;;;;1.10;0.85;;;;;;;11.37;57.09;101346.94;1593957;89;21141;-57
2023/01/06 07:18:04;;;;;;;1.45;1.10;;;;;;;11.38;56.92;101353.88;1609048;88;21146;-57
2023/01/06 07:20:32;;;;;;;1.60;1.37;;;;;;;11.38;56.90;101351.28;1654136;86;21145;-57
2023/01/06 07:22:59;;;;;;;1.50;1.40;;;;;;;11.39;56.87;101358.23;1659703;86;21212;-57
2023/01/06 07:25:25;;;;;;;1.20;1.10;;;;;;;11.41;56.76;101355.16;1654480;86;21047;-57
2023/01/06 07:27:55;;;;;;;1.32;1.10;;;;;;;11.39;56.75;101363.44;1653440;86;21534;-57
2023/01/06 07:30:23;;;;;;;1.27;1.10;;;;;;;11.38;56.74;101356.92;1629983;87;21112;-57
2023/01/06 07:32:50;;;;;;;1.35;1.22;;;;;;;11.39;56.69;101362.56;1631320;87;21155;-57
2023/01/06 07:35:17;;;;;;;1.27;1.17;;;;;;;11.37;56.58;101361.27;1628457;87;21049;-58
2023/01/06 07:37:44;;;;;;;1.40;1.20;;;;;;;11.38;56.56;101377.33;1632673;87;21068;-57
2023/01/06 07:40:11;;;;;;;1.15;1.05;;;;;;;11.39;56.59;101384.28;1629258;87;21049;-57
2023/01/06 07:42:39;;;;;;;2.05;1.20;;;;;;;11.39;56.61;101381.67;1633171;87;21065;-57
2023/01/06 07:45:07;;;;;;;1.10;1.00;;;;;;;11.39;56.69;101384.28;1632026;87;21192;-57
2023/01/06 07:47:34;;;;;;;1.25;1.15;;;;;;;11.41;56.62;101398.15;1629498;87;21548;-57
2023/01/06 07:50:01;;;;;;;1.37;1.10;;;;;;;11.41;56.59;101398.15;1666164;83;21022;-57
2023/01/06 07:52:28;;;;;;;2.67;1.57;;;;;;;11.43;56.54;101400.28;1714391;82;21022;-57
2023/01/06 07:54:58;;;;;;;1.72;1.50;;;;;;;11.46;56.46;101408.48;1716917;83;21037;-57
2023/01/06 07:57:23;;;;;;;1.85;1.27;;;;;;;11.50;56.37;101406.70;1705831;83;21093;-57
2023/01/06 07:59:50;;;;;;;1.20;1.10;;;;;;;11.52;56.31;101407.55;1718226;82;21601;-57
2023/01/06 08:02:16;;;;;;;1.55;1.10;;;;;;;11.55;56.14;101412.70;1719311;83;21584;-57
2023/01/06 08:04:43;;;;;;;1.60;1.27;;;;;;;11.58;56.07;101420.48;1716087;83;21085;-57
2023/01/06 08:07:11;;;;;;;1.98;1.30;;;;;;;11.63;55.92;101423.86;1717924;83;21034;-57
2023/01/06 08:09:38;;;;;;;2.08;1.27;;;;;;;11.66;55.71;101432.95;1718518;82;21081;-57
2023/01/06 08:12:06;;;;;;;1.77;1.40;;;;;;;11.69;55.49;101423.80;1718060;83;21006;-57
2023/01/06 08:14:33;;;;;;;1.40;1.30;;;;;;;11.72;55.33;101435.50;1716844;83;21081;-57
2023/01/06 08:17:00;;;;;;;1.70;1.60;;;;;;;11.77;55.19;101437.57;1719537;83;21129;-57
2023/01/06 08:19:27;;;;;;;1.47;1.10;;;;;;;11.79;55.11;101448.84;1716383;82;21164;-57
2023/01/06 08:21:54;;;;;;;1.20;1.10;;;;;;;11.81;54.91;101436.67;1715445;83;21133;-57
2023/01/06 08:24:20;;;;;;;1.70;1.30;;;;;;;11.81;54.96;101439.28;1718911;83;21077;-57
2023/01/06 08:26:47;;;;;;;1.17;1.07;;;;;;;11.82;55.01;101444.46;1734893;80;21506;-57
2023/01/06 08:29:14;;;;;;;1.45;1.27;;;;;;;11.82;54.88;101448.80;1780535;80;21053;-57
2023/01/06 08:31:41;;;;;;;1.62;1.37;;;;;;;11.84;54.93;101444.42;1762919;80;21042;-57
2023/01/06 08:34:10;;;;;;;1.62;1.30;;;;;;;11.88;54.69;101448.70;1734554;80;21092;-57
2023/01/06 08:36:37;;;;;;;2.52;1.40;;;;;;;11.90;54.63;101453.45;1757297;80;21586;-58
2023/01/06 08:39:04;;;;;;;1.98;1.55;;;;;;;11.91;54.15;101449.98;1760059;80;21065;-57
2023/01/06 08:41:31;;;;;;;1.87;1.47;;;;;;;11.90;54.02;101452.15;1763235;80;21618;-57
2023/01/06 08:43:57;;;;;;;1.47;1.37;;;;;;;11.88;53.54;101464.35;1691204;83;20990;-57
2023/01/06 08:46:25;;;;;;;3.22;1.70;;;;;;;11.85;53.18;101453.98;1694356;82;21061;-58
2023/01/06 08:48:52;;;;;;;1.95;1.70;;;;;;;11.79;53.16;101454.05;1692034;83;21018;-57
2023/01/06 08:51:22;;;;;;;2.15;1.60;;;;;;;11.73;53.13;101459.36;1700619;83;21578;-58
2023/01/06 08:53:48;;;;;;;2.12;1.80;;;;;;;11.67;53.17;101469.89;1697220;83;21071;-58
2023/01/06 08:56:25;;;;;;;2.02;1.52;;;;;;;11.59;53.26;101466.06;1696542;83;21035;-57
2023/01/06 08:58:56;;;;;;;1.60;1.50;;;;;;;11.56;53.66;101468.70;1741333;80;21038;-58
2023/01/06 09:01:27;;;;;;;2.20;1.70;;;;;;;11.55;53.82;101464.83;1659123;84;21078;-58
2023/01/06 09:03:54;;;;;;;1.60;1.45;;;;;;;11.57;53.81;101465.66;1571300;88;21075;-58
2023/01/06 09:06:21;;;;;;;2.95;2.00;;;;;;;11.59;53.84;101476.92;1607259;87;21618;-58
2023/01/06 09:08:48;;;;;;;2.55;2.00;;;;;;;11.60;53.75;101478.66;1600944;88;21129;-58
2023/01/06 09:11:15;;;;;;;1.85;1.65;;;;;;;11.61;53.65;101472.55;1610233;86;21562;-58
2023/01/06 09:13:43;;;;;;;1.65;1.50;;;;;;;11.64;53.69;101465.57;1617543;86;21534;-58
2023/01/06 09:16:10;;;;;;;1.70;1.60;;;;;;;11.66;53.52;101469.45;1607306;87;21074;-58
2023/01/06 09:18:37;;;;;;;2.22;1.80;;;;;;;11.67;53.38;101469.45;1617221;88;21613;-57
2023/01/06 09:21:04;;;;;;;2.80;1.87;;;;;;;11.70;53.11;101472.46;1593209;87;21126;-58
2023/01/06 09:23:31;;;;;;;1.65;1.50;;;;;;;11.73;52.97;101467.19;1613025;87;21049;-58
2023/01/06 09:25:58;;;;;;;1.25;1.15;;;;;;;11.75;52.92;101473.23;1617578;87;21050;-58
2023/01/06 09:28:25;;;;;;;2.00;1.60;;;;;;;11.75;52.90;101475.84;1605334;86;21095;-58
2023/01/06 09:30:51;;;;;;;2.62;1.60;;;;;;;11.75;52.34;101474.54;1622324;87;21590;-58
2023/01/06 09:33:18;;;;;;;1.80;1.20;;;;;;;11.71;52.28;101474.17;1604247;87;21070;-58
2023/01/06 09:35:45;;;;;;;1.40;1.30;;;;;;;11.70;52.54;101468.55;1609874;87;21690;-58
2023/01/06 09:38:12;;;;;;;2.15;1.50;;;;;;;11.68;52.80;101475.53;1615992;86;21014;-58
2023/01/06 09:40:44;;;;;;;1.27;1.12;;;;;;;11.68;52.66;101478.14;1611369;86;21517;-58
2023/01/06 09:43:26;;;;;;;1.75;1.60;;;;;;;11.69;52.34;101477.23;1600223;88;21153;-58
2023/01/06 09:45:59;;;;;;;1.50;1.40;;;;;;;11.69;52.05;101468.12;1580382;88;21656;-58
2023/01/06 09:48:34;;;;;;;1.67;1.42;;;;;;;11.66;52.01;101479.48;1547433;91;21080;-58
2023/01/06 09:51:04;;;;;;;2.20;1.32;;;;;;;11.63;52.10;101483.81;1559668;91;21073;-57
2023/01/06 09:53:40;;;;;;;2.30;1.42;;;;;;;11.60;52.19;101486.05;1558161;91;21069;-58
2023/01/06 09:56:11;;;;;;;1.62;1.20;;;;;;;11.53;52.23;101484.40;1563602;90;21038;-57
2023/01/06 09:58:48;;;;;;;2.17;1.75;;;;;;;11.52;52.40;101480.52;1558402;90;21077;-58
2023/01/06 10:01:18;;;;;;;2.35;1.25;;;;;;;11.51;52.00;101483.99;1583871;88;21562;-58
2023/01/06 10:03:45;;;;;;;3.15;1.52;;;;;;;11.45;52.08;101493.64;1582746;89;21543;-57
2023/01/06 10:06:27;;;;;;;1.60;1.47;;;;;;;11.46;52.25;101504.47;1659981;85;21052;-58
2023/01/06 10:09:16;;;;;;;1.60;1.50;;;;;;;11.45;51.94;101501.45;1664066;84;21254;-59
2023/01/06 10:12:05;;;;;;;1.95;1.75;;;;;;;11.41;51.66;101499.78;1663383;85;21069;-58
2023/01/06 10:14:53;;;;;;;2.05;1.85;;;;;;;11.39;51.72;101500.67;1640782;86;21085;-58
2023/01/06 10:17:31;;;;;;;2.52;1.65;;;;;;;11.38;51.93;101491.98;1657945;85;21509;-58
2023/01/06 10:20:52;;;;;;;1.82;1.60;;;;;;;11.38;51.71;101504.14;1637995;85;21891;-58
2023/01/06 10:23:56;;;;;;;1.65;1.40;;;;;;;11.37;52.05;101500.67;1663772;85;21069;-58
2023/01/06 10:26:38;;;;;;;2.45;1.50;;;;;;;11.39;51.83;101496.33;1544154;91;21229;-59
2023/01/06 10:29:18;;;;;;;1.67;1.57;;;;;;;11.43;51.98;101494.10;1541911;90;21074;-58
2023/01/06 10:31:46;;;;;;;1.60;1.12;;;;;;;11.45;51.72;101488.42;1556761;91;21049;-58
2023/01/06 10:34:20;;;;;;;2.80;1.32;;;;;;;11.46;51.64;101490.13;1539144;91;21125;-59
2023/01/06 10:37:08;;;;;;;2.05;1.60;;;;;;;11.46;51.71;101495.34;1514357;92;21078;-58
2023/01/06 10:39:36;;;;;;;1.82;1.20;;;;;;;11.42;51.66;101494.97;1534562;90;21039;-58
2023/01/06 10:45:06;;;;;;;2.98;1.60;;;;;;;11.41;51.57;101496.30;1576760;88;21026;-56
2023/01/06 10:47:32;;;;;;;2.77;1.12;;;;;;;11.39;51.43;101496.33;1594032;88;21489;-56
2023/01/06 10:49:59;;;;;;;1.87;1.25;;;;;;;11.37;51.51;101499.36;1571057;89;21074;-56
2023/01/06 10:52:26;;;;;;;1.32;1.10;;;;;;;11.36;51.61;101508.52;1584475;86;21742;-56
2023/01/06 10:54:57;;;;;;;2.00;0.95;;;;;;;11.32;51.66;101519.86;1595002;88;21598;-56
2023/01/06 10:57:28;;;;;;;2.50;1.25;;;;;;;11.30;51.66;101525.09;1610094;87;21041;-58
2023/01/06 11:00:21;;;;;;;3.02;1.07;;;;;;;11.28;51.71;101522.95;1585058;89;21099;-58
2023/01/06 11:02:50;;;;;;;1.82;1.25;;;;;;;11.25;51.76;101525.58;1589386;87;22127;-57
2023/01/06 11:05:25;;;;;;;1.57;0.88;;;;;;;11.22;52.07;101526.94;1657153;84;21071;-58
2023/01/06 11:08:04;;;;;;;1.67;1.20;;;;;;;11.19;52.33;101527.42;1659691;85;21491;-57
2023/01/06 11:10:43;;;;;;;2.17;1.20;;;;;;;11.16;52.52;101527.02;1654702;85;21029;-58
2023/01/06 11:13:34;;;;;;;1.37;1.25;;;;;;;11.11;52.58;101528.80;1639029;85;21071;-58
2023/01/06 11:16:06;;;;;;;1.45;1.30;;;;;;;11.09;52.46;101540.97;1634929;86;21133;-58
2023/01/06 11:18:36;;;;;;;4.72;1.27;;;;;;;11.10;52.60;101542.71;1637371;86;21050;-58
2023/01/06 11:21:12;;;;;;;3.52;1.20;;;;;;;11.11;52.50;101544.42;1632677;86;21101;-58
2023/01/06 11:23:41;;;;;;;1.95;1.40;;;;;;;11.11;52.59;101543.55;1635395;86;21106;-59
2023/01/06 11:26:18;;;;;;;1.82;1.50;;;;;;;11.11;52.78;101557.44;1650991;84;21194;-58
2023/01/06 11:28:47;;;;;;;3.17;1.55;;;;;;;11.11;52.84;101558.75;1703025;83;21069;-58
2023/01/06 11:31:24;;;;;;;1.90;1.40;;;;;;;11.11;52.79;101567.86;1705304;83;21022;-58
2023/01/06 11:34:00;;;;;;;2.72;1.42;;;;;;;11.12;52.80;101569.61;1699144;83;21117;-58
2023/01/06 11:36:30;;;;;;;1.60;1.50;;;;;;;11.09;52.64;101570.92;1695811;82;21096;-58
2023/01/06 11:39:02;;;;;;;3.20;1.12;;;;;;;11.07;52.79;101575.72;1642983;85;21067;-57
2023/01/06 11:41:36;;;;;;;6.55;1.50;;;;;;;11.05;52.48;101583.56;1633169;84;21032;-58
2023/01/06 11:44:08;;;;;;;1.67;1.27;;;;;;;10.97;52.84;101580.17;1643550;84;21478;-59
2023/01/06 11:46:35;;;;;;;3.12;1.47;;;;;;;10.94;52.80;101584.09;1579622;89;21701;-57
2023/01/06 11:49:07;;;;;;;2.77;1.57;;;;;;;10.90;52.54;101582.41;1580133;89;21159;-57
2023/01/06 11:51:46;;;;;;;2.58;1.52;;;;;;;10.93;52.60;101601.91;1523047;91;21124;-57
2023/01/06 11:54:38;;;;;;;1.50;1.40;;;;;;;10.93;52.21;101597.14;1519335;92;21075;-58
2023/01/06 11:57:25;;;;;;;1.60;1.45;;;;;;;10.94;52.09;101589.30;1518410;92;21710;-57